createdAt,value
2023-03-07T00:01:26.534Z,52.50
2023-03-07T00:03:56.779Z,54.67
2023-03-07T00:06:26.617Z,55.17
2023-03-07T00:11:28.839Z,61.43
2023-03-07T00:13:58.546Z,52.33
2023-03-07T00:16:27.800Z,58.72
2023-03-07T00:18:57.416Z,44.55
2023-03-07T00:21:31.398Z,46.35
2023-03-07T00:24:00.872Z,40.03
2023-03-07T00:26:31.451Z,35.87
2023-03-07T00:29:00.959Z,35.93
2023-03-07T00:31:30.293Z,32.42
2023-03-07T00:33:59.866Z,31.77
2023-03-07T00:36:29.263Z,29.08
2023-03-07T00:38:58.703Z,25.02
2023-03-07T00:41:30.357Z,28.20
2023-03-07T00:44:00.120Z,31.77
2023-03-07T00:46:30.259Z,27.23
2023-03-07T00:48:59.937Z,25.87
2023-03-07T00:51:29.186Z,25.95
2023-03-07T00:53:58.770Z,25.60
2023-03-07T00:56:28.096Z,25.30
2023-03-07T00:58:59.249Z,23.75
2023-03-07T01:01:28.429Z,19.07
2023-03-07T01:03:58.369Z,24.02
2023-03-07T01:06:29.582Z,18.88
2023-03-07T01:09:00.927Z,26.30
2023-03-07T01:11:32.229Z,17.23
2023-03-07T01:14:05.557Z,19.47
2023-03-07T01:16:39.365Z,22.87
2023-03-07T01:19:12.554Z,21.70
2023-03-07T01:21:44.597Z,23.13
2023-03-07T01:24:16.001Z,21.57
2023-03-07T01:26:45.311Z,18.13
2023-03-07T01:29:16.213Z,19.27
2023-03-07T01:31:45.560Z,18.43
2023-03-07T01:34:15.334Z,23.10
2023-03-07T01:36:44.774Z,23.40
2023-03-07T01:39:17.013Z,20.02
2023-03-07T01:42:15.698Z,14.60
2023-03-07T01:45:09.038Z,17.77
2023-03-07T01:47:43.722Z,16.17
2023-03-07T01:50:17.609Z,15.23
2023-03-07T01:52:50.820Z,20.80
2023-03-07T01:55:24.075Z,24.30
2023-03-07T01:57:58.836Z,22.10
2023-03-07T02:00:30.061Z,18.00
2023-03-07T02:03:10.512Z,20.50
2023-03-07T02:05:48.718Z,20.93
2023-03-07T02:08:23.464Z,18.40
2023-03-07T02:10:52.994Z,19.30
2023-03-07T02:13:22.679Z,19.35
2023-03-07T02:15:53.650Z,21.23
2023-03-07T02:18:28.529Z,21.57
2023-03-07T02:21:09.492Z,22.17
2023-03-07T02:23:45.652Z,20.67
2023-03-07T02:26:22.833Z,23.03
2023-03-07T02:28:54.693Z,20.07
2023-03-07T02:31:24.585Z,16.40
2023-03-07T02:33:53.813Z,22.73
2023-03-07T02:36:27.325Z,19.70
2023-03-07T02:39:07.724Z,26.33
2023-03-07T02:41:40.819Z,25.13
2023-03-07T02:44:19.935Z,24.57
2023-03-07T02:46:50.149Z,25.90
2023-03-07T02:49:20.267Z,28.07
2023-03-07T02:51:49.769Z,30.20
2023-03-07T02:54:19.127Z,21.17
2023-03-07T02:56:49.342Z,22.43
2023-03-07T02:59:20.080Z,20.55
2023-03-07T03:01:49.744Z,19.70
2023-03-07T03:04:19.258Z,28.50
2023-03-07T03:06:48.851Z,22.98
2023-03-07T03:09:18.226Z,20.80
2023-03-07T03:11:48.352Z,25.37
2023-03-07T03:14:21.581Z,27.27
2023-03-07T03:16:52.911Z,23.23
2023-03-07T03:19:23.735Z,18.10
2023-03-07T03:21:53.206Z,23.05
2023-03-07T03:24:22.465Z,22.27
2023-03-07T03:26:52.256Z,25.75
2023-03-07T03:29:25.541Z,24.03
2023-03-07T03:31:58.311Z,24.67
2023-03-07T03:34:27.624Z,22.10
2023-03-07T03:36:57.076Z,20.83
2023-03-07T03:39:26.420Z,22.40
2023-03-07T03:41:59.605Z,28.17
2023-03-07T03:44:31.031Z,21.73
2023-03-07T03:47:00.955Z,24.70
2023-03-07T03:49:30.500Z,23.23
2023-03-07T03:51:59.985Z,30.63
2023-03-07T03:54:29.619Z,23.67
2023-03-07T03:59:30.271Z,22.60
2023-03-07T04:02:00.779Z,25.03
2023-03-07T04:04:30.025Z,26.88
2023-03-07T04:07:00.521Z,27.30
2023-03-07T04:09:29.698Z,33.75
2023-03-07T04:11:59.306Z,25.33
2023-03-07T04:14:29.970Z,29.55
2023-03-07T04:17:00.150Z,23.17
2023-03-07T04:19:29.665Z,27.77
2023-03-07T04:22:00.275Z,24.40
2023-03-07T04:24:29.971Z,22.48
2023-03-07T04:26:59.501Z,29.73
2023-03-07T04:29:31.003Z,27.77
2023-03-07T04:32:06.742Z,24.23
2023-03-07T04:34:36.383Z,17.90
2023-03-07T04:37:06.325Z,27.05
2023-03-07T04:39:35.537Z,27.70
2023-03-07T04:42:05.746Z,22.20
2023-03-07T04:44:39.429Z,23.87
2023-03-07T04:47:09.220Z,18.43
2023-03-07T04:54:40.975Z,23.80
2023-03-07T04:57:11.816Z,21.30
2023-03-07T04:59:42.777Z,10.67
2023-03-07T05:02:14.953Z,25.23
2023-03-07T05:04:44.937Z,20.03
2023-03-07T05:07:14.684Z,25.55
2023-03-07T05:09:44.303Z,23.88
2023-03-07T05:12:15.040Z,26.55
2023-03-07T05:14:46.155Z,26.17
2023-03-07T05:17:17.358Z,24.17
2023-03-07T05:19:46.734Z,32.60
2023-03-07T05:22:16.136Z,29.30
2023-03-07T05:24:46.044Z,21.98
2023-03-07T05:27:16.563Z,25.13
2023-03-07T05:29:47.520Z,17.77
2023-03-07T05:32:17.280Z,25.20
2023-03-07T05:34:48.340Z,24.30
2023-03-07T05:37:20.300Z,27.40
2023-03-07T05:39:49.992Z,25.20
2023-03-07T05:42:19.906Z,35.45
2023-03-07T05:44:52.043Z,28.30
2023-03-07T05:47:22.017Z,26.30
2023-03-07T05:49:51.486Z,34.15
2023-03-07T05:52:21.423Z,31.77
2023-03-07T05:54:51.434Z,36.63
2023-03-07T05:57:21.960Z,18.10
2023-03-07T05:59:52.551Z,28.48
2023-03-07T06:02:22.314Z,29.70
2023-03-07T06:04:51.615Z,23.95
2023-03-07T06:07:21.122Z,30.17
2023-03-07T06:09:50.590Z,29.02
2023-03-07T06:14:49.482Z,30.33
2023-03-07T06:17:20.360Z,29.33
2023-03-07T06:19:49.620Z,30.17
2023-03-07T06:22:19.272Z,30.25
2023-03-07T06:24:48.740Z,28.30
2023-03-07T06:27:18.335Z,29.88
2023-03-07T06:29:47.690Z,32.30
2023-03-07T06:32:17.160Z,31.10
2023-03-07T06:34:47.908Z,42.72
2023-03-07T06:37:17.421Z,58.13
2023-03-07T06:39:46.602Z,77.90
2023-03-07T06:42:16.262Z,75.43
2023-03-07T06:44:45.333Z,73.47
2023-03-07T06:47:15.224Z,57.22
2023-03-07T06:49:46.277Z,57.90
2023-03-07T06:52:16.172Z,51.10
2023-03-07T06:54:46.457Z,59.10
2023-03-07T06:57:16.523Z,47.47
2023-03-07T06:59:46.676Z,45.53
2023-03-07T07:02:17.084Z,41.92
2023-03-07T07:04:47.903Z,31.03
2023-03-07T07:07:18.084Z,29.80
2023-03-07T07:09:47.564Z,28.90
2023-03-07T07:12:16.985Z,30.63
2023-03-07T07:14:47.744Z,25.98
2023-03-07T07:17:17.706Z,27.52
2023-03-07T07:19:49.834Z,26.67
2023-03-07T07:22:19.938Z,25.13
2023-03-07T07:24:51.876Z,20.65
2023-03-07T07:27:21.440Z,29.83
2023-03-07T07:29:51.680Z,27.40
2023-03-07T07:34:51.777Z,29.07
2023-03-07T07:37:21.686Z,25.80
2023-03-07T07:39:51.669Z,27.42
2023-03-07T07:45:19.512Z,25.73
2023-03-07T07:47:50.882Z,17.33
2023-03-07T07:50:23.832Z,25.73
2023-03-07T07:52:55.417Z,21.67
2023-03-07T07:55:25.505Z,29.48
2023-03-07T07:57:55.641Z,29.88
2023-03-07T08:00:26.656Z,27.52
2023-03-07T08:05:26.797Z,21.00
2023-03-07T08:07:57.080Z,25.58
2023-03-07T08:10:26.316Z,31.33
2023-03-07T08:12:55.686Z,31.73
2023-03-07T08:15:24.940Z,23.38
2023-03-07T08:17:54.311Z,27.85
2023-03-07T08:20:27.718Z,10.40
2023-03-07T08:22:57.156Z,30.42
2023-03-07T08:25:26.801Z,25.00
2023-03-07T08:27:58.465Z,16.90
2023-03-07T08:30:31.739Z,23.40
2023-03-07T08:33:01.619Z,23.42
2023-03-07T08:35:33.609Z,10.45
2023-03-07T08:38:03.189Z,20.42
2023-03-07T08:40:32.839Z,19.05
2023-03-07T08:45:31.259Z,27.58
2023-03-07T08:48:00.856Z,22.80
2023-03-07T08:50:32.045Z,31.27
2023-03-07T08:53:01.682Z,27.15
2023-03-07T08:55:30.772Z,10.27
2023-03-07T08:58:00.394Z,27.48
2023-03-07T09:00:29.965Z,18.63
2023-03-07T09:03:01.586Z,17.55
2023-03-07T09:05:32.990Z,23.77
2023-03-07T09:08:02.519Z,34.75
2023-03-07T09:10:31.657Z,24.43
2023-03-07T09:13:01.068Z,28.88
2023-03-07T09:15:31.491Z,26.27
2023-03-07T09:18:01.054Z,31.95
2023-03-07T09:20:30.260Z,24.52
2023-03-07T09:23:01.012Z,33.67
2023-03-07T09:25:30.468Z,32.95
2023-03-07T09:27:59.849Z,36.67
2023-03-07T09:30:29.045Z,30.05
2023-03-07T09:32:58.417Z,35.42
2023-03-07T09:35:27.557Z,29.50
2023-03-07T09:37:56.912Z,36.03
2023-03-07T09:40:29.486Z,19.00
2023-03-07T09:43:07.292Z,24.42
2023-03-07T09:46:01.153Z,34.88
2023-03-07T09:48:59.945Z,28.10
2023-03-07T09:51:40.108Z,37.97
2023-03-07T09:54:15.183Z,29.00
2023-03-07T09:56:50.215Z,43.20
2023-03-07T09:59:30.159Z,45.72
2023-03-07T10:02:06.474Z,27.58
2023-03-07T10:04:47.118Z,39.30
2023-03-07T10:07:18.530Z,42.30
2023-03-07T10:09:48.508Z,36.65
2023-03-07T10:12:38.403Z,36.17
2023-03-07T10:15:20.460Z,32.78
2023-03-07T10:18:11.197Z,34.63
2023-03-07T10:20:49.176Z,50.72
2023-03-07T10:24:01.765Z,45.85
2023-03-07T10:26:35.050Z,48.10
2023-03-07T10:29:16.030Z,46.40
2023-03-07T10:31:50.179Z,42.33
2023-03-07T10:34:27.887Z,45.92
2023-03-07T10:37:08.819Z,40.55
2023-03-07T10:39:46.421Z,39.85
2023-03-07T10:42:18.955Z,32.33
2023-03-07T10:44:51.048Z,57.33
2023-03-07T10:47:24.000Z,50.20
2023-03-07T10:49:57.638Z,32.05
2023-03-07T10:52:33.867Z,47.65
2023-03-07T10:55:35.586Z,38.92
2023-03-07T10:58:16.794Z,40.97
2023-03-07T11:00:58.458Z,28.60
2023-03-07T11:03:45.999Z,48.30
2023-03-07T11:06:41.816Z,26.88
2023-03-07T11:09:17.793Z,38.03
2023-03-07T11:11:53.907Z,49.58
2023-03-07T11:14:24.255Z,25.10
2023-03-07T11:16:57.664Z,43.97
2023-03-07T11:19:42.172Z,39.30
2023-03-07T11:22:26.984Z,40.15
2023-03-07T11:25:01.153Z,36.08
2023-03-07T11:27:39.369Z,23.65
2023-03-07T11:30:29.767Z,21.65
2023-03-07T11:33:09.712Z,47.28
2023-03-07T11:38:29.461Z,41.15
2023-03-07T11:41:06.597Z,34.40
2023-03-07T11:44:01.203Z,39.00
2023-03-07T11:46:44.631Z,44.25
2023-03-07T11:49:36.860Z,42.15
2023-03-07T11:52:22.345Z,39.53
2023-03-07T11:54:58.821Z,22.80
2023-03-07T11:57:47.723Z,41.58
2023-03-07T12:00:28.552Z,40.20
2023-03-07T12:03:19.903Z,41.53
2023-03-07T12:06:29.396Z,35.17
2023-03-07T12:11:54.102Z,35.60
2023-03-07T12:14:37.678Z,42.05
2023-03-07T12:17:19.065Z,39.00
2023-03-07T12:20:19.605Z,43.20
2023-03-07T12:23:06.172Z,39.85
2023-03-07T12:25:39.646Z,34.50
2023-03-07T12:28:18.032Z,32.97
2023-03-07T12:31:00.751Z,24.65
2023-03-07T12:33:50.002Z,47.72
2023-03-07T12:36:31.058Z,50.83
2023-03-07T12:39:08.983Z,36.30
2023-03-07T12:41:54.283Z,45.78
2023-03-07T12:44:34.774Z,39.22
2023-03-07T12:47:13.102Z,41.78
2023-03-07T12:49:49.991Z,35.00
2023-03-07T12:52:42.740Z,38.65
2023-03-07T12:55:24.235Z,35.83
2023-03-07T12:58:03.655Z,37.30
2023-03-07T13:00:36.882Z,31.23
2023-03-07T13:03:08.382Z,31.15
2023-03-07T13:05:39.980Z,33.38
2023-03-07T13:08:10.634Z,23.63
2023-03-07T13:10:45.681Z,20.15
2023-03-07T13:13:55.698Z,32.20
2023-03-07T13:16:39.766Z,27.42
2023-03-07T13:19:53.439Z,27.27
2023-03-07T13:22:58.091Z,27.20
2023-03-07T13:26:02.735Z,28.35
2023-03-07T13:28:37.946Z,31.20
2023-03-07T13:31:36.033Z,26.15
2023-03-07T13:34:46.658Z,25.35
2023-03-07T13:37:53.300Z,24.58
2023-03-07T13:40:55.366Z,22.02
2023-03-07T13:43:59.955Z,25.10
2023-03-07T13:46:58.918Z,25.15
2023-03-07T13:49:47.723Z,22.98
2023-03-07T13:52:44.226Z,20.52
2023-03-07T13:55:31.638Z,15.70
2023-03-07T13:58:17.976Z,26.87
2023-03-07T14:00:55.164Z,14.73
2023-03-07T14:03:32.415Z,27.85
2023-03-07T14:06:05.364Z,19.85
2023-03-07T14:08:36.788Z,17.95
2023-03-07T14:11:08.337Z,18.38
2023-03-07T14:13:58.137Z,20.17
2023-03-07T14:16:40.645Z,12.68
2023-03-07T14:19:20.399Z,22.92
2023-03-07T14:24:58.741Z,24.63
2023-03-07T14:27:28.408Z,19.25
2023-03-07T14:29:58.968Z,19.50
2023-03-07T14:32:31.304Z,19.23
2023-03-07T14:35:01.107Z,21.08
2023-03-07T14:40:27.803Z,22.35
2023-03-07T14:43:10.477Z,18.55
2023-03-07T14:45:45.796Z,22.42
2023-03-07T14:48:52.834Z,24.10
2023-03-07T14:51:26.944Z,15.30
2023-03-07T14:53:58.388Z,22.70
2023-03-07T14:56:32.295Z,19.98
2023-03-07T14:59:04.041Z,15.68
2023-03-07T15:01:36.763Z,19.23
2023-03-07T15:04:22.514Z,18.83
2023-03-07T15:06:56.732Z,10.82
2023-03-07T15:09:29.839Z,16.73
2023-03-07T15:12:05.749Z,17.40
2023-03-07T15:14:44.567Z,24.45
2023-03-07T15:17:20.447Z,18.92
2023-03-07T15:19:55.413Z,19.13
2023-03-07T15:22:27.948Z,21.02
2023-03-07T15:24:58.224Z,23.40
2023-03-07T15:27:30.766Z,19.58
2023-03-07T15:30:02.222Z,16.52
2023-03-07T15:32:39.907Z,22.13
2023-03-07T15:35:18.898Z,23.60
2023-03-07T15:37:57.141Z,19.83
2023-03-07T15:40:30.236Z,20.55
2023-03-07T15:43:02.720Z,21.10
2023-03-07T15:45:35.461Z,23.65
2023-03-07T15:48:15.786Z,15.70
2023-03-07T15:50:52.192Z,24.15
2023-03-07T15:53:27.585Z,21.48
2023-03-07T15:55:59.179Z,21.55
2023-03-07T15:58:29.763Z,19.92
2023-03-07T16:01:19.771Z,22.50
2023-03-07T16:03:54.316Z,20.63
2023-03-07T16:06:43.231Z,23.35
2023-03-07T16:09:15.593Z,19.33
2023-03-07T16:11:46.685Z,19.45
2023-03-07T16:14:22.605Z,20.95
2023-03-07T16:16:54.952Z,18.40
2023-03-07T16:19:25.679Z,18.80
2023-03-07T16:21:55.464Z,23.75
2023-03-07T16:24:24.755Z,21.98
2023-03-07T16:26:54.321Z,19.92
2023-03-07T16:29:25.038Z,13.50
2023-03-07T16:31:54.563Z,26.10
2023-03-07T16:34:25.235Z,20.58
2023-03-07T16:36:54.744Z,23.70
2023-03-07T16:39:23.895Z,18.67
2023-03-07T16:41:54.750Z,17.15
2023-03-07T16:44:24.697Z,21.65
2023-03-07T16:47:00.029Z,11.48
2023-03-07T16:49:30.650Z,17.30
2023-03-07T16:52:06.082Z,19.02
2023-03-07T16:54:35.863Z,22.95
2023-03-07T16:57:07.295Z,19.13
2023-03-07T16:59:39.240Z,14.10
2023-03-07T17:02:16.495Z,16.52
2023-03-07T17:04:47.884Z,17.48
2023-03-07T17:07:20.503Z,16.40
2023-03-07T17:09:50.320Z,11.98
2023-03-07T17:12:22.038Z,9.77
2023-03-07T17:14:51.718Z,8.02
2023-03-07T17:17:29.199Z,13.18
2023-03-07T17:20:00.324Z,6.38
2023-03-07T17:22:31.542Z,6.38
2023-03-07T17:25:01.623Z,6.50
2023-03-07T17:27:31.140Z,3.78
2023-03-07T17:30:00.761Z,5.63
2023-03-07T17:32:30.165Z,3.85
2023-03-07T17:35:01.038Z,7.40
2023-03-07T17:37:32.808Z,4.32
2023-03-07T17:40:02.367Z,5.18
2023-03-07T17:42:34.172Z,3.03
2023-03-07T17:45:08.676Z,5.70
2023-03-07T17:47:40.560Z,3.63
2023-03-07T17:50:15.819Z,4.63
2023-03-07T17:52:46.209Z,3.55
2023-03-07T17:55:19.155Z,3.28
2023-03-07T17:57:49.807Z,2.95
2023-03-07T18:00:21.456Z,5.78
2023-03-07T18:02:54.268Z,3.58
2023-03-07T18:05:32.130Z,6.25
2023-03-07T18:08:02.097Z,5.50
2023-03-07T18:10:31.250Z,7.50
2023-03-07T18:13:00.630Z,5.72
2023-03-07T18:15:29.775Z,4.32
2023-03-07T18:18:00.829Z,5.90
2023-03-07T18:20:31.406Z,2.03
2023-03-07T18:23:03.201Z,6.72
2023-03-07T18:25:34.625Z,5.28
2023-03-07T18:28:05.994Z,4.22
2023-03-07T18:30:35.205Z,7.80
2023-03-07T18:33:04.764Z,8.90
2023-03-07T18:35:38.325Z,4.13
2023-03-07T18:38:09.072Z,6.60
2023-03-07T18:40:38.307Z,10.00
2023-03-07T18:43:07.692Z,8.50
2023-03-07T18:45:36.874Z,7.30
2023-03-07T18:48:06.361Z,5.35
2023-03-07T18:50:39.618Z,6.20
2023-03-07T18:53:10.086Z,3.42
2023-03-07T18:55:40.767Z,5.72
2023-03-07T18:58:11.207Z,7.07
2023-03-07T19:00:41.562Z,5.38
2023-03-07T19:03:13.815Z,7.30
2023-03-07T19:05:49.491Z,6.47
2023-03-07T19:08:21.754Z,5.85
2023-03-07T19:10:51.846Z,6.03
2023-03-07T19:13:21.779Z,9.20
2023-03-07T19:15:50.865Z,6.43
2023-03-07T19:18:20.418Z,6.75
2023-03-07T19:20:51.936Z,4.72
2023-03-07T19:23:23.126Z,8.38
2023-03-07T19:25:52.597Z,4.25
2023-03-07T19:28:21.997Z,7.53
2023-03-07T19:30:54.336Z,5.32
2023-03-07T19:33:24.402Z,5.30
2023-03-07T19:36:06.401Z,5.70
2023-03-07T19:38:38.839Z,4.22
2023-03-07T19:41:12.615Z,6.70
2023-03-07T19:43:43.246Z,5.72
2023-03-07T19:46:15.106Z,5.80
2023-03-07T19:48:44.844Z,7.60
2023-03-07T19:51:20.010Z,4.60
2023-03-07T19:53:50.336Z,4.13
2023-03-07T19:56:23.494Z,3.97
2023-03-07T19:58:55.813Z,8.00
2023-03-07T20:01:25.847Z,2.08
2023-03-07T20:03:56.272Z,8.35
2023-03-07T20:06:31.614Z,5.63
2023-03-07T20:09:02.273Z,5.00
2023-03-07T20:11:33.371Z,5.72
2023-03-07T20:14:05.829Z,5.97
2023-03-07T20:16:36.184Z,5.22
2023-03-07T20:19:08.780Z,3.95
2023-03-07T20:21:40.418Z,6.22
2023-03-07T20:24:10.420Z,4.25
2023-03-07T20:26:40.945Z,6.38
2023-03-07T20:29:11.877Z,4.55
2023-03-07T20:31:41.720Z,11.35
2023-03-07T20:36:43.597Z,3.78
2023-03-07T20:39:15.087Z,7.35
2023-03-07T20:41:47.713Z,3.33
2023-03-07T20:44:18.726Z,5.00
2023-03-07T20:46:50.672Z,6.18
2023-03-07T20:49:21.706Z,5.70
2023-03-07T20:51:52.376Z,3.58
2023-03-07T20:54:21.834Z,10.75
2023-03-07T20:56:51.014Z,6.33
2023-03-07T20:59:21.520Z,8.82
2023-03-07T21:01:50.858Z,6.90
2023-03-07T21:04:21.125Z,3.40
2023-03-07T21:06:52.186Z,4.53
2023-03-07T21:09:23.447Z,10.88
2023-03-07T21:11:53.162Z,6.18
2023-03-07T21:14:22.808Z,2.83
2023-03-07T21:16:51.853Z,5.43
2023-03-07T21:19:21.329Z,3.53
2023-03-07T21:21:52.933Z,5.27
2023-03-07T21:24:22.824Z,6.40
2023-03-07T21:26:51.896Z,5.45
2023-03-07T21:29:21.410Z,10.77
2023-03-07T21:31:50.843Z,5.55
2023-03-07T21:34:20.412Z,10.05
2023-03-07T21:36:56.057Z,8.63
2023-03-07T21:39:27.189Z,6.55
2023-03-07T21:41:56.619Z,7.28
2023-03-07T21:44:26.056Z,5.18
2023-03-07T21:46:55.291Z,3.95
2023-03-07T21:49:24.656Z,5.10
2023-03-07T21:51:53.833Z,4.80
2023-03-07T21:54:23.293Z,11.85
2023-03-07T21:56:53.875Z,6.50
2023-03-07T21:59:24.446Z,13.02
2023-03-07T22:01:53.942Z,6.30
2023-03-07T22:04:23.466Z,8.23
2023-03-07T22:06:53.485Z,9.55
2023-03-07T22:09:23.199Z,6.70
2023-03-07T22:11:55.207Z,6.10
2023-03-07T22:14:24.664Z,3.78
2023-03-07T22:16:53.808Z,4.27
2023-03-07T22:19:23.427Z,21.63
2023-03-07T22:21:52.482Z,9.80
2023-03-07T22:24:22.052Z,2.97
2023-03-07T22:26:52.619Z,5.53
2023-03-07T22:29:22.160Z,3.40
2023-03-07T22:31:51.531Z,5.22
2023-03-07T22:34:20.920Z,5.22
2023-03-07T22:36:54.740Z,4.72
2023-03-07T22:39:24.246Z,9.75
2023-03-07T22:41:54.808Z,3.28
2023-03-07T22:44:24.277Z,3.10
2023-03-07T22:46:53.593Z,3.00
2023-03-07T22:49:23.140Z,4.65
2023-03-07T22:51:52.265Z,4.20
2023-03-07T22:54:21.804Z,4.57
2023-03-07T22:56:51.193Z,3.75
2023-03-07T22:59:22.225Z,4.63
2023-03-07T23:01:52.215Z,8.40
2023-03-07T23:04:21.678Z,8.30
2023-03-07T23:06:51.214Z,5.93
2023-03-07T23:11:49.606Z,2.58
2023-03-07T23:14:19.093Z,3.10
2023-03-07T23:16:49.902Z,5.18
2023-03-07T23:19:19.469Z,7.97
2023-03-07T23:21:48.530Z,5.38
2023-03-07T23:24:18.260Z,4.78
2023-03-07T23:26:47.545Z,8.13
2023-03-07T23:29:17.082Z,3.15
2023-03-07T23:31:46.506Z,6.28
2023-03-07T23:34:19.978Z,3.92
2023-03-07T23:36:49.280Z,2.80
2023-03-07T23:39:19.222Z,8.30
2023-03-07T23:44:17.712Z,2.88
2023-03-07T23:46:46.930Z,6.82
2023-03-07T23:49:17.785Z,5.00
2023-03-07T23:51:47.030Z,12.05
2023-03-07T23:54:16.531Z,5.20
2023-03-07T23:56:45.784Z,4.07
2023-03-07T23:59:15.350Z,4.13
